Time;durP1;ratioP1;P1;durP2;ratioP2;P2;SDS_P1;SDS_P2;PMS_P1;PMS_P2;Temp;Humidity;BMP_temperature;BMP_pressure;BME280_temperature;BME280_humidity;BME280_pressure;Samples;Min_cycle;Max_cycle;Signal;HPM_P1;HPM_P2
2022/03/26 00:00:28;;;;;;;;;;;;;;;;;;1051522;28;912;-38
2022/03/26 00:02:34;;;;;;;;;;;;;;;;;;1051764;28;980;-37
2022/03/26 00:03:04;;;;;;;;;;;;;;;;;;1051499;28;838;-38
2022/03/26 00:03:36;;;;;;;;;;;;;;;;;;1051392;28;843;-39
2022/03/26 00:04:06;;;;;;;;;;;;;;;;;;1051560;28;917;-38
2022/03/26 00:04:37;;;;;;;;;;;;;;;;;;1051417;28;845;-37
2022/03/26 00:05:07;;;;;;;;;;;;;;;;;;1051981;28;877;-37
2022/03/26 00:05:41;;;;;;;;;;;;;;;;;;1051390;28;877;-38
2022/03/26 00:06:12;;;;;;;;;;;;;;;;;;1051744;28;909;-35
2022/03/26 00:06:42;;;;;;;;;;;;;;;;;;1051205;28;972;-39
2022/03/26 00:07:13;;;;;;;;;;;;;;;;;;1051967;28;806;-38
2022/03/26 00:07:43;;;;;;;;;;;;;;;;;;1051629;28;790;-38
2022/03/26 00:08:14;;;;;;;;;;;;;;;;;;1051780;28;1942;-38
2022/03/26 00:08:44;;;;;;;;;;;;;;;;;;1051821;28;853;-38
2022/03/26 00:09:15;;;;;;;;;;;;;;;;;;1051889;28;850;-38
2022/03/26 00:09:45;;;;;;;;;;;;;;;;;;1051899;28;1055;-37
2022/03/26 00:10:15;;;;;;;;;;;;;;;;;;1051685;28;928;-37
2022/03/26 00:10:46;;;;;;;;;;;;;;;;;;1051877;28;936;-38
2022/03/26 00:11:17;;;;;;;;;;;;;;;;;;1051739;28;912;-36
2022/03/26 00:11:47;;;;;;;;;;;;;;;;;;1051870;28;941;-38
2022/03/26 00:12:39;;;;;;;;;;;;;;;;;;1051807;28;920;-38
2022/03/26 00:13:09;;;;;;;;;;;;;;;;;;1051853;28;937;-38
2022/03/26 00:13:40;;;;;;;;;;;;;;;;;;1050696;28;1336;-38
2022/03/26 00:14:11;;;;;;;;;;;;;;;;;;1051667;28;968;-37
2022/03/26 00:14:41;;;;;;;;;;;;;;;;;;1051703;28;980;-35
2022/03/26 00:15:12;;;;;;;;;;;;;;;;;;1052050;28;869;-38
2022/03/26 00:15:43;;;;;;;;;;;;;;;;;;1051515;28;952;-38
2022/03/26 00:16:25;;;;;;;;;;;;;;;;;;1051775;28;850;-38
2022/03/26 00:16:56;;;;;;;;;;;;;;;;;;1051768;28;842;-38
2022/03/26 00:17:26;;;;;;;;;;;;;;;;;;1051859;28;929;-38
2022/03/26 00:17:56;;;;;;;;;;;;;;;;;;1051768;28;976;-38
2022/03/26 00:18:27;;;;;;;;;;;;;;;;;;1051707;28;901;-38
2022/03/26 00:18:57;;;;;;;;;;;;;;;;;;1051832;28;783;-37
2022/03/26 00:19:49;;;;;;;;;;;;;;;;;;1051859;28;979;-37
2022/03/26 00:20:20;;;;;;;;;;;;;;;;;;1051667;28;773;-37
2022/03/26 00:20:50;;;;;;;;;;;;;;;;;;1051696;28;818;-38
2022/03/26 00:21:21;;;;;;;;;;;;;;;;;;1051529;28;977;-38
2022/03/26 00:21:51;;;;;;;;;;;;;;;;;;1051834;28;881;-38
2022/03/26 00:22:21;;;;;;;;;;;;;;;;;;1051783;28;854;-38
2022/03/26 00:24:12;;;;;;;;;;;;;;;;;;1051873;28;818;-37
2022/03/26 00:24:42;;;;;;;;;;;;;;;;;;1051816;28;928;-38
2022/03/26 00:25:15;;;;;;;;;;;;;;;;;;1053291;28;1166;-38
2022/03/26 00:25:45;;;;;;;;;;;;;;;;;;1055906;28;745;-38
2022/03/26 00:26:15;;;;;;;;;;;;;;;;;;1056030;28;948;-37
2022/03/26 00:26:46;;;;;;;;;;;;;;;;;;1055894;28;987;-37
2022/03/26 00:27:17;;;;;;;;;;;;;;;;;;1056011;28;913;-38
2022/03/26 00:27:48;;;;;;;;;;;;;;;;;;1055980;28;861;-36
2022/03/26 00:28:19;;;;;;;;;;;;;;;;;;1055610;28;1914;-37
2022/03/26 00:28:49;;;;;;;;;;;;;;;;;;1055781;28;791;-37
2022/03/26 00:29:20;;;;;;;;;;;;;;;;;;1055847;28;976;-37
2022/03/26 00:29:50;;;;;;;;;;;;;;;;;;1056076;28;944;-37
2022/03/26 00:30:36;;;;;;;;;;;;;;;;;;1055795;28;916;-36
2022/03/26 00:31:06;;;;;;;;;;;;;;;;;;1055374;28;984;-37
2022/03/26 00:31:37;;;;;;;;;;;;;;;;;;1051408;28;858;-37
2022/03/26 00:32:08;;;;;;;;;;;;;;;;;;1051803;28;810;-35
2022/03/26 00:32:38;;;;;;;;;;;;;;;;;;1051739;28;806;-37
2022/03/26 00:33:09;;;;;;;;;;;;;;;;;;1051532;28;747;-35
2022/03/26 00:34:07;;;;;;;;;;;;;;;;;;1051542;28;833;-37
2022/03/26 00:34:38;;;;;;;;;;;;;;;;;;1047536;28;794;-37
2022/03/26 00:35:09;;;;;;;;;;;;;;;;;;1047736;28;893;-37
2022/03/26 00:35:39;;;;;;;;;;;;;;;;;;1047452;28;827;-38
2022/03/26 00:36:10;;;;;;;;;;;;;;;;;;1047793;28;917;-37
2022/03/26 00:36:40;;;;;;;;;;;;;;;;;;1047894;28;842;-37
2022/03/26 00:37:11;;;;;;;;;;;;;;;;;;1048097;28;889;-37
2022/03/26 00:37:42;;;;;;;;;;;;;;;;;;1048204;28;826;-36
2022/03/26 00:38:12;;;;;;;;;;;;;;;;;;1048361;28;834;-37
2022/03/26 00:38:43;;;;;;;;;;;;;;;;;;1048336;28;877;-38
2022/03/26 00:39:13;;;;;;;;;;;;;;;;;;1048352;28;917;-36
2022/03/26 00:39:43;;;;;;;;;;;;;;;;;;1048227;28;989;-37
2022/03/26 00:40:14;;;;;;;;;;;;;;;;;;1048392;28;949;-36
2022/03/26 00:40:44;;;;;;;;;;;;;;;;;;1048442;28;829;-37
2022/03/26 00:41:14;;;;;;;;;;;;;;;;;;1048394;28;801;-36
2022/03/26 00:41:45;;;;;;;;;;;;;;;;;;1048189;28;1024;-38
2022/03/26 00:42:15;;;;;;;;;;;;;;;;;;1048385;28;870;-38
2022/03/26 00:42:45;;;;;;;;;;;;;;;;;;1048303;28;1237;-38
2022/03/26 00:43:16;;;;;;;;;;;;;;;;;;1048380;28;909;-38
2022/03/26 00:43:46;;;;;;;;;;;;;;;;;;1048105;28;865;-39
2022/03/26 00:44:17;;;;;;;;;;;;;;;;;;1048241;28;822;-38
2022/03/26 00:44:47;;;;;;;;;;;;;;;;;;1048477;28;937;-39
2022/03/26 00:45:17;;;;;;;;;;;;;;;;;;1048247;28;917;-38
2022/03/26 00:45:48;;;;;;;;;;;;;;;;;;1048312;28;877;-42
2022/03/26 00:46:18;;;;;;;;;;;;;;;;;;1048402;28;885;-38
2022/03/26 00:46:49;;;;;;;;;;;;;;;;;;1048348;28;806;-36
2022/03/26 00:47:19;;;;;;;;;;;;;;;;;;1048203;28;1212;-38
2022/03/26 00:47:49;;;;;;;;;;;;;;;;;;1048270;28;790;-38
2022/03/26 00:48:20;;;;;;;;;;;;;;;;;;1048140;28;1910;-38
2022/03/26 00:48:51;;;;;;;;;;;;;;;;;;1048443;28;826;-38
2022/03/26 00:49:21;;;;;;;;;;;;;;;;;;1048262;28;977;-37
2022/03/26 00:49:51;;;;;;;;;;;;;;;;;;1047983;28;803;-37
2022/03/26 00:50:22;;;;;;;;;;;;;;;;;;1047899;28;929;-38
2022/03/26 00:50:53;;;;;;;;;;;;;;;;;;1047766;28;1015;-37
2022/03/26 00:51:23;;;;;;;;;;;;;;;;;;1047738;28;961;-37
2022/03/26 00:51:53;;;;;;;;;;;;;;;;;;1048439;28;814;-38
2022/03/26 00:52:24;;;;;;;;;;;;;;;;;;1048192;28;885;-36
2022/03/26 00:52:54;;;;;;;;;;;;;;;;;;1048411;28;849;-37
2022/03/26 00:53:26;;;;;;;;;;;;;;;;;;1048255;28;952;-37
2022/03/26 00:53:56;;;;;;;;;;;;;;;;;;1048367;28;809;-36
2022/03/26 00:54:27;;;;;;;;;;;;;;;;;;1048330;28;917;-37
2022/03/26 00:54:57;;;;;;;;;;;;;;;;;;1048241;28;921;-35
2022/03/26 00:55:27;;;;;;;;;;;;;;;;;;1048406;28;929;-36
2022/03/26 00:55:58;;;;;;;;;;;;;;;;;;1048202;28;1024;-37
2022/03/26 00:56:28;;;;;;;;;;;;;;;;;;1048248;28;798;-38
2022/03/26 00:56:59;;;;;;;;;;;;;;;;;;1048311;28;976;-36
2022/03/26 00:57:29;;;;;;;;;;;;;;;;;;1048227;28;910;-37
2022/03/26 00:58:00;;;;;;;;;;;;;;;;;;1048278;28;909;-34
2022/03/26 00:58:30;;;;;;;;;;;;;;;;;;1047947;28;909;-40
2022/03/26 00:59:00;;;;;;;;;;;;;;;;;;1048368;28;953;-37
2022/03/26 00:59:30;;;;;;;;;;;;;;;;;;1048308;28;811;-37
2022/03/26 01:00:01;;;;;;;;;;;;;;;;;;1048325;28;847;-36
2022/03/26 01:00:31;;;;;;;;;;;;;;;;;;1048300;28;890;-37
2022/03/26 01:01:02;;;;;;;;;;;;;;;;;;1048394;28;790;-35
2022/03/26 01:01:33;;;;;;;;;;;;;;;;;;1048218;28;881;-37
2022/03/26 01:02:03;;;;;;;;;;;;;;;;;;1048379;28;913;-37
2022/03/26 01:02:34;;;;;;;;;;;;;;;;;;1048140;28;822;-36
2022/03/26 01:03:08;;;;;;;;;;;;;;;;;;1048331;28;890;-35
2022/03/26 01:03:39;;;;;;;;;;;;;;;;;;1048305;28;944;-38
2022/03/26 01:04:09;;;;;;;;;;;;;;;;;;1048283;28;1017;-36
2022/03/26 01:04:39;;;;;;;;;;;;;;;;;;1048112;28;917;-36
2022/03/26 01:05:10;;;;;;;;;;;;;;;;;;1048352;28;916;-38
2022/03/26 01:05:41;;;;;;;;;;;;;;;;;;1048049;28;1011;-36
2022/03/26 01:06:12;;;;;;;;;;;;;;;;;;1048166;28;965;-36
2022/03/26 01:06:43;;;;;;;;;;;;;;;;;;1048123;28;1118;-35
2022/03/26 01:07:13;;;;;;;;;;;;;;;;;;1048321;28;917;-37
2022/03/26 01:07:43;;;;;;;;;;;;;;;;;;1048057;28;941;-36
2022/03/26 01:08:14;;;;;;;;;;;;;;;;;;1048236;28;1909;-36
2022/03/26 01:08:45;;;;;;;;;;;;;;;;;;1048198;28;858;-37
2022/03/26 01:09:15;;;;;;;;;;;;;;;;;;1047779;28;909;-37
2022/03/26 01:09:45;;;;;;;;;;;;;;;;;;1047983;28;855;-37
2022/03/26 01:10:16;;;;;;;;;;;;;;;;;;1047968;28;889;-37
2022/03/26 01:10:46;;;;;;;;;;;;;;;;;;1047843;28;948;-35
2022/03/26 01:11:17;;;;;;;;;;;;;;;;;;1048239;28;849;-37
2022/03/26 01:11:48;;;;;;;;;;;;;;;;;;1048180;28;992;-35
2022/03/26 01:12:18;;;;;;;;;;;;;;;;;;1048363;28;948;-37
2022/03/26 01:12:48;;;;;;;;;;;;;;;;;;1048352;28;977;-37
2022/03/26 01:13:19;;;;;;;;;;;;;;;;;;1047757;28;886;-37
2022/03/26 01:13:53;;;;;;;;;;;;;;;;;;1048305;28;837;-37
2022/03/26 01:14:23;;;;;;;;;;;;;;;;;;1048195;28;897;-38
2022/03/26 01:14:53;;;;;;;;;;;;;;;;;;1048309;28;798;-37
2022/03/26 01:15:24;;;;;;;;;;;;;;;;;;1048293;28;829;-34
2022/03/26 01:15:54;;;;;;;;;;;;;;;;;;1048138;28;1006;-37
2022/03/26 01:16:25;;;;;;;;;;;;;;;;;;1048387;28;798;-38
2022/03/26 01:16:56;;;;;;;;;;;;;;;;;;1048162;28;886;-37
2022/03/26 01:17:26;;;;;;;;;;;;;;;;;;1048280;28;881;-37
2022/03/26 01:17:56;;;;;;;;;;;;;;;;;;1048136;28;944;-36
2022/03/26 01:18:27;;;;;;;;;;;;;;;;;;1048160;28;976;-36
2022/03/26 01:18:58;;;;;;;;;;;;;;;;;;1048230;28;885;-37
2022/03/26 01:19:28;;;;;;;;;;;;;;;;;;1048325;28;948;-37
2022/03/26 01:19:59;;;;;;;;;;;;;;;;;;1048058;28;929;-37
2022/03/26 01:20:30;;;;;;;;;;;;;;;;;;1048304;28;949;-37
2022/03/26 01:21:01;;;;;;;;;;;;;;;;;;1047858;28;811;-37
2022/03/26 01:21:31;;;;;;;;;;;;;;;;;;1048213;28;877;-37
2022/03/26 01:22:01;;;;;;;;;;;;;;;;;;1048330;28;831;-37
2022/03/26 01:22:32;;;;;;;;;;;;;;;;;;1048220;28;882;-35
2022/03/26 01:23:02;;;;;;;;;;;;;;;;;;1048018;28;1561;-38
2022/03/26 01:23:34;;;;;;;;;;;;;;;;;;1048265;28;1004;-36
2022/03/26 01:24:04;;;;;;;;;;;;;;;;;;1048173;28;1071;-37
2022/03/26 01:24:35;;;;;;;;;;;;;;;;;;1048263;28;869;-37
2022/03/26 01:25:05;;;;;;;;;;;;;;;;;;1049007;28;1139;-36
2022/03/26 01:25:36;;;;;;;;;;;;;;;;;;1056603;28;956;-37
2022/03/26 01:26:06;;;;;;;;;;;;;;;;;;1056569;28;786;-37
2022/03/26 01:26:37;;;;;;;;;;;;;;;;;;1056566;28;798;-36
2022/03/26 01:27:07;;;;;;;;;;;;;;;;;;1056613;28;909;-36
2022/03/26 01:27:38;;;;;;;;;;;;;;;;;;1056518;28;952;-37
2022/03/26 01:28:08;;;;;;;;;;;;;;;;;;1055821;28;1970;-38
2022/03/26 01:28:39;;;;;;;;;;;;;;;;;;1056631;28;813;-38
2022/03/26 01:29:09;;;;;;;;;;;;;;;;;;1056457;28;987;-38
2022/03/26 01:29:40;;;;;;;;;;;;;;;;;;1056693;28;987;-38
2022/03/26 01:30:11;;;;;;;;;;;;;;;;;;1056557;28;967;-36
2022/03/26 01:30:41;;;;;;;;;;;;;;;;;;1056493;28;853;-39
2022/03/26 01:31:12;;;;;;;;;;;;;;;;;;1055359;28;1107;-37
2022/03/26 01:31:42;;;;;;;;;;;;;;;;;;1052210;28;948;-37
2022/03/26 01:32:13;;;;;;;;;;;;;;;;;;1052447;28;952;-37
2022/03/26 01:32:43;;;;;;;;;;;;;;;;;;1052338;28;857;-36
2022/03/26 01:33:14;;;;;;;;;;;;;;;;;;1052413;28;850;-36
2022/03/26 01:33:45;;;;;;;;;;;;;;;;;;1052342;28;935;-37
2022/03/26 01:34:16;;;;;;;;;;;;;;;;;;1052307;28;901;-37
2022/03/26 01:34:46;;;;;;;;;;;;;;;;;;1052347;28;943;-37
2022/03/26 01:35:16;;;;;;;;;;;;;;;;;;1052369;28;1015;-38
2022/03/26 01:35:47;;;;;;;;;;;;;;;;;;1052062;28;878;-37
2022/03/26 01:36:17;;;;;;;;;;;;;;;;;;1052391;28;814;-36
2022/03/26 01:36:48;;;;;;;;;;;;;;;;;;1052313;28;937;-37
2022/03/26 01:37:18;;;;;;;;;;;;;;;;;;1052398;28;833;-38
2022/03/26 01:37:48;;;;;;;;;;;;;;;;;;1052255;28;991;-37
2022/03/26 01:38:19;;;;;;;;;;;;;;;;;;1052209;28;826;-37
2022/03/26 01:38:49;;;;;;;;;;;;;;;;;;1052356;28;921;-36
2022/03/26 01:39:22;;;;;;;;;;;;;;;;;;1052454;28;826;-35
2022/03/26 01:39:52;;;;;;;;;;;;;;;;;;1052289;28;947;-38
2022/03/26 01:40:23;;;;;;;;;;;;;;;;;;1052369;28;921;-37
2022/03/26 01:40:53;;;;;;;;;;;;;;;;;;1052188;28;964;-37
2022/03/26 01:41:24;;;;;;;;;;;;;;;;;;1052319;28;959;-34
2022/03/26 01:41:54;;;;;;;;;;;;;;;;;;1052375;28;916;-37
2022/03/26 01:42:24;;;;;;;;;;;;;;;;;;1052361;28;849;-37
2022/03/26 01:42:55;;;;;;;;;;;;;;;;;;1051882;28;862;-38
2022/03/26 01:43:25;;;;;;;;;;;;;;;;;;1052366;28;1031;-37
2022/03/26 01:43:55;;;;;;;;;;;;;;;;;;1052264;28;913;-36
2022/03/26 01:44:26;;;;;;;;;;;;;;;;;;1052482;28;1087;-37
2022/03/26 01:44:56;;;;;;;;;;;;;;;;;;1052043;28;793;-37
2022/03/26 01:45:27;;;;;;;;;;;;;;;;;;1052434;28;1007;-37
2022/03/26 01:45:58;;;;;;;;;;;;;;;;;;1052152;28;929;-34
2022/03/26 01:46:43;;;;;;;;;;;;;;;;;;1052431;28;809;-38
2022/03/26 01:47:13;;;;;;;;;;;;;;;;;;1052195;28;1240;-38
2022/03/26 01:47:44;;;;;;;;;;;;;;;;;;1052180;28;983;-35
2022/03/26 01:48:14;;;;;;;;;;;;;;;;;;1052245;28;1972;-37
2022/03/26 01:48:44;;;;;;;;;;;;;;;;;;1052144;28;830;-36
2022/03/26 01:49:15;;;;;;;;;;;;;;;;;;1052112;28;921;-38
2022/03/26 01:49:45;;;;;;;;;;;;;;;;;;1052431;28;842;-37
2022/03/26 01:50:15;;;;;;;;;;;;;;;;;;1051830;28;810;-38
2022/03/26 01:50:46;;;;;;;;;;;;;;;;;;1052396;28;922;-37
2022/03/26 01:51:17;;;;;;;;;;;;;;;;;;1051976;28;1592;-37
2022/03/26 01:51:47;;;;;;;;;;;;;;;;;;1052417;28;794;-37
2022/03/26 01:52:18;;;;;;;;;;;;;;;;;;1052221;28;916;-37
2022/03/26 01:52:48;;;;;;;;;;;;;;;;;;1052372;28;874;-37
2022/03/26 01:53:18;;;;;;;;;;;;;;;;;;1052130;28;1738;-37
2022/03/26 01:53:50;;;;;;;;;;;;;;;;;;1052481;28;960;-38
2022/03/26 01:54:21;;;;;;;;;;;;;;;;;;1052206;28;928;-34
2022/03/26 01:54:51;;;;;;;;;;;;;;;;;;1052299;28;877;-37
2022/03/26 01:55:22;;;;;;;;;;;;;;;;;;1052113;28;869;-37
2022/03/26 01:55:53;;;;;;;;;;;;;;;;;;1052342;28;815;-37
2022/03/26 01:56:24;;;;;;;;;;;;;;;;;;1052290;28;988;-37
2022/03/26 01:56:55;;;;;;;;;;;;;;;;;;1052136;28;873;-35
2022/03/26 01:57:26;;;;;;;;;;;;;;;;;;1052301;28;901;-37
2022/03/26 01:57:56;;;;;;;;;;;;;;;;;;1051902;28;940;-37
2022/03/26 01:58:26;;;;;;;;;;;;;;;;;;1052228;28;1357;-37
2022/03/26 01:58:57;;;;;;;;;;;;;;;;;;1052304;28;897;-37
2022/03/26 01:59:33;;;;;;;;;;;;;;;;;;1052140;28;802;-36
2022/03/26 02:00:04;;;;;;;;;;;;;;;;;;1051776;28;889;-38
2022/03/26 02:00:43;;;;;;;;;;;;;;;;;;1051936;28;663;-38
2022/03/26 02:01:13;;;;;;;;;;;;;;;;;;1051702;28;933;-38
2022/03/26 02:01:43;;;;;;;;;;;;;;;;;;1052079;28;794;-37
2022/03/26 02:02:15;;;;;;;;;;;;;;;;;;1052037;28;893;-37
2022/03/26 02:02:45;;;;;;;;;;;;;;;;;;1052377;28;865;-36
2022/03/26 02:03:16;;;;;;;;;;;;;;;;;;1052093;28;937;-36
2022/03/26 02:03:47;;;;;;;;;;;;;;;;;;1052305;28;992;-37
2022/03/26 02:04:17;;;;;;;;;;;;;;;;;;1052202;28;859;-38
2022/03/26 02:04:47;;;;;;;;;;;;;;;;;;1052145;28;917;-37
2022/03/26 02:05:19;;;;;;;;;;;;;;;;;;1051965;28;798;-37
2022/03/26 02:05:49;;;;;;;;;;;;;;;;;;1052110;28;933;-36
2022/03/26 02:06:22;;;;;;;;;;;;;;;;;;1052203;28;802;-36
2022/03/26 02:06:53;;;;;;;;;;;;;;;;;;1052312;28;905;-37
2022/03/26 02:07:23;;;;;;;;;;;;;;;;;;1052126;28;1079;-37
2022/03/26 02:07:53;;;;;;;;;;;;;;;;;;1052039;28;941;-37
2022/03/26 02:08:24;;;;;;;;;;;;;;;;;;1052107;28;1988;-37
2022/03/26 02:08:54;;;;;;;;;;;;;;;;;;1052179;28;917;-34
2022/03/26 02:09:25;;;;;;;;;;;;;;;;;;1052177;28;1719;-36
2022/03/26 02:09:55;;;;;;;;;;;;;;;;;;1052185;28;929;-38
2022/03/26 02:10:25;;;;;;;;;;;;;;;;;;1052141;28;849;-38
2022/03/26 02:10:56;;;;;;;;;;;;;;;;;;1052282;28;854;-38
2022/03/26 02:11:30;;;;;;;;;;;;;;;;;;1052000;28;925;-38
2022/03/26 02:12:00;;;;;;;;;;;;;;;;;;1052367;28;861;-38
2022/03/26 02:12:30;;;;;;;;;;;;;;;;;;1051839;28;949;-38
2022/03/26 02:13:02;;;;;;;;;;;;;;;;;;1052314;28;909;-36
2022/03/26 02:13:48;;;;;;;;;;;;;;;;;;1052172;28;837;-38
2022/03/26 02:14:19;;;;;;;;;;;;;;;;;;1052018;28;953;-36
2022/03/26 02:14:50;;;;;;;;;;;;;;;;;;1052187;28;861;-36
2022/03/26 02:15:20;;;;;;;;;;;;;;;;;;1052292;28;873;-37
2022/03/26 02:15:51;;;;;;;;;;;;;;;;;;1052167;28;818;-37
2022/03/26 02:16:22;;;;;;;;;;;;;;;;;;1052258;28;854;-38
2022/03/26 02:16:52;;;;;;;;;;;;;;;;;;1052078;28;1116;-37
2022/03/26 02:17:23;;;;;;;;;;;;;;;;;;1052183;28;936;-36
2022/03/26 02:17:53;;;;;;;;;;;;;;;;;;1052092;28;889;-38
2022/03/26 02:18:24;;;;;;;;;;;;;;;;;;1052146;28;869;-37
2022/03/26 02:18:54;;;;;;;;;;;;;;;;;;1052109;28;930;-38
2022/03/26 02:19:24;;;;;;;;;;;;;;;;;;1052254;28;967;-37
2022/03/26 02:19:55;;;;;;;;;;;;;;;;;;1051826;28;853;-38
2022/03/26 02:20:26;;;;;;;;;;;;;;;;;;1052204;28;837;-37
2022/03/26 02:20:56;;;;;;;;;;;;;;;;;;1052072;28;837;-38
2022/03/26 02:21:27;;;;;;;;;;;;;;;;;;1052199;28;881;-39
2022/03/26 02:21:58;;;;;;;;;;;;;;;;;;1052124;28;964;-38
2022/03/26 02:22:28;;;;;;;;;;;;;;;;;;1052052;28;826;-38
2022/03/26 02:22:59;;;;;;;;;;;;;;;;;;1052280;28;818;-37
2022/03/26 02:23:29;;;;;;;;;;;;;;;;;;1052047;28;873;-38
2022/03/26 02:24:00;;;;;;;;;;;;;;;;;;1052246;28;838;-37
2022/03/26 02:24:30;;;;;;;;;;;;;;;;;;1052015;28;786;-37
2022/03/26 02:25:01;;;;;;;;;;;;;;;;;;1051694;28;648;-37
2022/03/26 02:25:31;;;;;;;;;;;;;;;;;;1055734;28;1234;-37
2022/03/26 02:26:01;;;;;;;;;;;;;;;;;;1055979;28;834;-38
2022/03/26 02:26:32;;;;;;;;;;;;;;;;;;1055886;28;1836;-38
2022/03/26 02:27:06;;;;;;;;;;;;;;;;;;1056390;28;905;-38
2022/03/26 02:27:36;;;;;;;;;;;;;;;;;;1055970;28;1008;-37
2022/03/26 02:28:07;;;;;;;;;;;;;;;;;;1056212;28;1298;-37
2022/03/26 02:28:38;;;;;;;;;;;;;;;;;;1056201;28;1992;-37
2022/03/26 02:29:11;;;;;;;;;;;;;;;;;;1056272;28;983;-37
2022/03/26 02:29:41;;;;;;;;;;;;;;;;;;1056276;28;949;-36
2022/03/26 02:30:12;;;;;;;;;;;;;;;;;;1055907;28;1210;-35
2022/03/26 02:30:42;;;;;;;;;;;;;;;;;;1055974;28;821;-37
2022/03/26 02:31:13;;;;;;;;;;;;;;;;;;1055938;28;873;-38
2022/03/26 02:31:43;;;;;;;;;;;;;;;;;;1054382;28;1157;-37
2022/03/26 02:32:13;;;;;;;;;;;;;;;;;;1052160;28;819;-37
2022/03/26 02:32:44;;;;;;;;;;;;;;;;;;1051977;28;854;-35
2022/03/26 02:33:14;;;;;;;;;;;;;;;;;;1052135;28;975;-37
2022/03/26 02:33:44;;;;;;;;;;;;;;;;;;1052177;28;838;-34
2022/03/26 02:34:15;;;;;;;;;;;;;;;;;;1052082;28;850;-38
2022/03/26 02:34:46;;;;;;;;;;;;;;;;;;1051799;28;964;-37
2022/03/26 02:35:17;;;;;;;;;;;;;;;;;;1052099;28;944;-38
2022/03/26 02:35:47;;;;;;;;;;;;;;;;;;1051930;28;909;-37
2022/03/26 02:36:18;;;;;;;;;;;;;;;;;;1052312;28;794;-37
2022/03/26 02:36:48;;;;;;;;;;;;;;;;;;1051898;28;933;-37
2022/03/26 02:37:19;;;;;;;;;;;;;;;;;;1052126;28;1817;-37
2022/03/26 02:37:49;;;;;;;;;;;;;;;;;;1051821;28;1101;-36
2022/03/26 02:38:20;;;;;;;;;;;;;;;;;;1052235;28;992;-35
2022/03/26 02:38:50;;;;;;;;;;;;;;;;;;1052037;28;932;-33
2022/03/26 02:39:21;;;;;;;;;;;;;;;;;;1052049;28;933;-36
2022/03/26 02:39:51;;;;;;;;;;;;;;;;;;1052033;28;964;-37
2022/03/26 02:40:22;;;;;;;;;;;;;;;;;;1052213;28;993;-35
2022/03/26 02:40:52;;;;;;;;;;;;;;;;;;1051931;28;909;-36
2022/03/26 02:41:22;;;;;;;;;;;;;;;;;;1052061;28;873;-33
2022/03/26 02:41:53;;;;;;;;;;;;;;;;;;1051910;28;1095;-37
2022/03/26 02:42:24;;;;;;;;;;;;;;;;;;1051885;28;965;-33
2022/03/26 02:42:54;;;;;;;;;;;;;;;;;;1052080;28;862;-37
2022/03/26 02:43:25;;;;;;;;;;;;;;;;;;1052008;28;961;-35
2022/03/26 02:43:56;;;;;;;;;;;;;;;;;;1052061;28;823;-35
2022/03/26 02:44:26;;;;;;;;;;;;;;;;;;1052014;28;1454;-37
2022/03/26 02:44:56;;;;;;;;;;;;;;;;;;1052028;28;877;-35
2022/03/26 02:45:28;;;;;;;;;;;;;;;;;;1052149;28;806;-36
2022/03/26 02:45:58;;;;;;;;;;;;;;;;;;1052079;28;897;-37
2022/03/26 02:46:28;;;;;;;;;;;;;;;;;;1052013;28;1601;-37
2022/03/26 02:46:59;;;;;;;;;;;;;;;;;;1052087;28;1220;-37
2022/03/26 02:47:29;;;;;;;;;;;;;;;;;;1051951;28;846;-34
2022/03/26 02:48:00;;;;;;;;;;;;;;;;;;1051912;28;929;-35
2022/03/26 02:48:31;;;;;;;;;;;;;;;;;;1052034;28;1993;-37
2022/03/26 02:49:01;;;;;;;;;;;;;;;;;;1052113;28;876;-37
2022/03/26 02:49:32;;;;;;;;;;;;;;;;;;1051722;28;909;-38
2022/03/26 02:50:02;;;;;;;;;;;;;;;;;;1051947;28;936;-38
2022/03/26 02:50:32;;;;;;;;;;;;;;;;;;1052037;28;941;-38
2022/03/26 02:51:03;;;;;;;;;;;;;;;;;;1052092;28;865;-38
2022/03/26 02:51:33;;;;;;;;;;;;;;;;;;1051979;28;815;-36
2022/03/26 02:52:04;;;;;;;;;;;;;;;;;;1052126;28;952;-38
2022/03/26 02:52:35;;;;;;;;;;;;;;;;;;1051940;28;957;-38
2022/03/26 02:53:06;;;;;;;;;;;;;;;;;;1052106;28;972;-37
2022/03/26 02:53:36;;;;;;;;;;;;;;;;;;1052036;28;901;-38
2022/03/26 02:54:06;;;;;;;;;;;;;;;;;;1051900;28;822;-37
2022/03/26 02:54:37;;;;;;;;;;;;;;;;;;1052132;28;825;-37
2022/03/26 02:55:08;;;;;;;;;;;;;;;;;;1051978;28;837;-38
2022/03/26 02:55:39;;;;;;;;;;;;;;;;;;1052073;28;952;-39
2022/03/26 02:56:09;;;;;;;;;;;;;;;;;;1051981;28;961;-38
2022/03/26 02:56:39;;;;;;;;;;;;;;;;;;1052005;28;834;-37
2022/03/26 02:57:10;;;;;;;;;;;;;;;;;;1051742;28;870;-37
2022/03/26 02:57:40;;;;;;;;;;;;;;;;;;1052131;28;850;-37
2022/03/26 02:58:11;;;;;;;;;;;;;;;;;;1051722;28;790;-37
2022/03/26 02:58:41;;;;;;;;;;;;;;;;;;1051837;28;952;-39
2022/03/26 02:59:11;;;;;;;;;;;;;;;;;;1051951;28;846;-36
2022/03/26 02:59:42;;;;;;;;;;;;;;;;;;1051779;28;804;-38
2022/03/26 03:00:14;;;;;;;;;;;;;;;;;;1051666;28;799;-38
2022/03/26 03:00:44;;;;;;;;;;;;;;;;;;1051656;28;842;-38
2022/03/26 03:01:14;;;;;;;;;;;;;;;;;;1047529;28;1205;-36
2022/03/26 03:01:45;;;;;;;;;;;;;;;;;;1051678;28;885;-38
2022/03/26 03:02:15;;;;;;;;;;;;;;;;;;1051548;28;846;-38
2022/03/26 03:02:45;;;;;;;;;;;;;;;;;;1051716;28;889;-38
2022/03/26 03:03:16;;;;;;;;;;;;;;;;;;1051812;28;996;-38
2022/03/26 03:03:47;;;;;;;;;;;;;;;;;;1051900;28;955;-38
2022/03/26 03:04:17;;;;;;;;;;;;;;;;;;1051713;28;766;-38
2022/03/26 03:04:48;;;;;;;;;;;;;;;;;;1051875;28;913;-38
2022/03/26 03:05:18;;;;;;;;;;;;;;;;;;1052024;28;1552;-36
2022/03/26 03:05:48;;;;;;;;;;;;;;;;;;1051887;28;799;-36
2022/03/26 03:06:19;;;;;;;;;;;;;;;;;;1052105;28;830;-38
2022/03/26 03:06:49;;;;;;;;;;;;;;;;;;1051953;28;1154;-38
2022/03/26 03:07:20;;;;;;;;;;;;;;;;;;1051998;28;890;-38
2022/03/26 03:07:50;;;;;;;;;;;;;;;;;;1051878;28;882;-38
2022/03/26 03:08:22;;;;;;;;;;;;;;;;;;1051935;28;1981;-37
2022/03/26 03:08:53;;;;;;;;;;;;;;;;;;1051947;28;815;-38
2022/03/26 03:09:23;;;;;;;;;;;;;;;;;;1052111;28;920;-38
2022/03/26 03:09:53;;;;;;;;;;;;;;;;;;1051920;28;806;-38
2022/03/26 03:10:24;;;;;;;;;;;;;;;;;;1052135;28;928;-37
2022/03/26 03:10:54;;;;;;;;;;;;;;;;;;1051863;28;941;-36
2022/03/26 03:11:24;;;;;;;;;;;;;;;;;;1051957;28;893;-37
2022/03/26 03:11:55;;;;;;;;;;;;;;;;;;1051720;28;865;-38
2022/03/26 03:12:28;;;;;;;;;;;;;;;;;;1051943;28;842;-38
2022/03/26 03:12:59;;;;;;;;;;;;;;;;;;1051972;28;928;-38
2022/03/26 03:13:29;;;;;;;;;;;;;;;;;;1051972;28;865;-37
2022/03/26 03:14:00;;;;;;;;;;;;;;;;;;1052000;28;909;-34
2022/03/26 03:14:30;;;;;;;;;;;;;;;;;;1051947;28;802;-38
2022/03/26 03:15:01;;;;;;;;;;;;;;;;;;1051993;28;1272;-36
2022/03/26 03:15:31;;;;;;;;;;;;;;;;;;1051947;28;929;-36
2022/03/26 03:16:02;;;;;;;;;;;;;;;;;;1052068;28;889;-37
2022/03/26 03:16:32;;;;;;;;;;;;;;;;;;1051837;28;787;-37
2022/03/26 03:17:03;;;;;;;;;;;;;;;;;;1051944;28;934;-37
2022/03/26 03:17:37;;;;;;;;;;;;;;;;;;1051883;28;913;-38
2022/03/26 03:18:07;;;;;;;;;;;;;;;;;;1051907;28;1072;-38
2022/03/26 03:18:38;;;;;;;;;;;;;;;;;;1051984;28;932;-38
2022/03/26 03:19:08;;;;;;;;;;;;;;;;;;1051450;28;920;-38
2022/03/26 03:19:38;;;;;;;;;;;;;;;;;;1052019;28;854;-36
2022/03/26 03:20:09;;;;;;;;;;;;;;;;;;1052070;28;794;-36
2022/03/26 03:20:39;;;;;;;;;;;;;;;;;;1051907;28;800;-37
2022/03/26 03:21:10;;;;;;;;;;;;;;;;;;1051912;28;916;-38
2022/03/26 03:21:40;;;;;;;;;;;;;;;;;;1051953;28;987;-37
2022/03/26 03:22:10;;;;;;;;;;;;;;;;;;1051987;28;853;-38
2022/03/26 03:22:42;;;;;;;;;;;;;;;;;;1051957;28;873;-38
2022/03/26 03:23:13;;;;;;;;;;;;;;;;;;1051888;28;944;-38
2022/03/26 03:23:44;;;;;;;;;;;;;;;;;;1051846;28;932;-38
2022/03/26 03:24:14;;;;;;;;;;;;;;;;;;1052046;28;801;-38
2022/03/26 03:24:44;;;;;;;;;;;;;;;;;;1051957;28;821;-38
2022/03/26 03:25:15;;;;;;;;;;;;;;;;;;1053627;28;1150;-37
2022/03/26 03:25:45;;;;;;;;;;;;;;;;;;1056046;28;829;-37
2022/03/26 03:26:15;;;;;;;;;;;;;;;;;;1055921;28;862;-38
2022/03/26 03:26:46;;;;;;;;;;;;;;;;;;1055492;28;962;-38
2022/03/26 03:27:16;;;;;;;;;;;;;;;;;;1055788;28;868;-37
2022/03/26 03:27:47;;;;;;;;;;;;;;;;;;1055577;28;896;-36
2022/03/26 03:28:17;;;;;;;;;;;;;;;;;;1055866;28;1971;-37
2022/03/26 03:28:47;;;;;;;;;;;;;;;;;;1056108;28;1170;-39
2022/03/26 03:29:18;;;;;;;;;;;;;;;;;;1056302;28;937;-37
2022/03/26 03:29:48;;;;;;;;;;;;;;;;;;1055843;28;1415;-37
2022/03/26 03:30:19;;;;;;;;;;;;;;;;;;1056227;28;980;-38
2022/03/26 03:30:49;;;;;;;;;;;;;;;;;;1055952;28;861;-38
2022/03/26 03:31:19;;;;;;;;;;;;;;;;;;1056263;28;841;-38
2022/03/26 03:31:50;;;;;;;;;;;;;;;;;;1053550;28;1086;-38
2022/03/26 03:32:20;;;;;;;;;;;;;;;;;;1052021;28;837;-38
2022/03/26 03:32:51;;;;;;;;;;;;;;;;;;1051877;28;995;-38
2022/03/26 03:33:21;;;;;;;;;;;;;;;;;;1052072;28;846;-38
2022/03/26 03:33:52;;;;;;;;;;;;;;;;;;1051456;28;929;-36
2022/03/26 03:34:23;;;;;;;;;;;;;;;;;;1052041;28;837;-38
2022/03/26 03:34:53;;;;;;;;;;;;;;;;;;1051779;28;937;-38
2022/03/26 03:35:23;;;;;;;;;;;;;;;;;;1052095;28;987;-36
2022/03/26 03:35:54;;;;;;;;;;;;;;;;;;1051786;28;924;-39
2022/03/26 03:36:24;;;;;;;;;;;;;;;;;;1051986;28;969;-38
2022/03/26 03:36:54;;;;;;;;;;;;;;;;;;1051838;28;1031;-38
2022/03/26 03:37:25;;;;;;;;;;;;;;;;;;1051945;28;884;-38
2022/03/26 03:37:55;;;;;;;;;;;;;;;;;;1051684;28;681;-38
2022/03/26 03:38:25;;;;;;;;;;;;;;;;;;1052025;28;928;-38
2022/03/26 03:38:56;;;;;;;;;;;;;;;;;;1051758;28;905;-37
2022/03/26 03:39:26;;;;;;;;;;;;;;;;;;1052005;28;786;-38
2022/03/26 03:39:56;;;;;;;;;;;;;;;;;;1049947;28;1456;-37
2022/03/26 03:40:26;;;;;;;;;;;;;;;;;;1049312;28;941;-36
2022/03/26 03:40:57;;;;;;;;;;;;;;;;;;1050067;28;807;-38